Impacts METAR Board INFO
IDs:

KPIT - Pittsburgh Intl, PA, US

Updated at: 1901 UTC 16 Jan 2018
Potential Impact None Slight Moderate High
Time16/07Z 16/08Z 16/09Z 16/10Z 16/11Z 16/12Z 16/13Z 16/14Z 16/15Z 16/16Z 16/17Z 16/18Z 16/19Z
VIS6 5 4 5 4 3 2 2 2 2 2 2 2
CIG47 48 49 43 42 32 24 31 36 14 16 25 24
CoverOVCOVCOVCOVCOVCOVCOVCOVCOVCOVCOVCOVCOVC
FltCatVFRMVFRMVFRMVFRMVFRMVFRIFRIFRIFRIFRIFRIFRIFR
WX-SN BR-SN BR-SN BR-SN BR-SN BR-SN BR-SN BR-SN BR-SN BR-SN BR-SN BR-SN BR-SN BR
WDir210220220230230160200150200240280250260
WSpd5 5 4 5 3 3 3 3 4 5 10 8 5
WGst-- -- -- -- -- -- -- -- -- -- -- -- --
Raw hourly METARs
KPIT 160651Z 21005KT 6SM -SN BR OVC047 M03/M04 A3029 RMK AO2 SLP281 P0001 T10331044
KPIT 160751Z 22005KT 5SM -SN BR OVC048 M03/M04 A3030 RMK AO2 SLP285 P0000 T10331044
KPIT 160851Z 22004KT 4SM -SN BR OVC049 M03/M04 A3031 RMK AO2 SLP289 P0000 60001 T10331044 53011
KPIT 160951Z 23005KT 5SM -SN BR OVC043 M03/M05 A3032 RMK AO2 SLP291 P0000 T10331050
KPIT 161051Z 23003KT 4SM -SN BR FEW025 OVC042 M04/M05 A3033 RMK AO2 SLP296 P0000 T10391050
KPIT 161151Z 16003KT 3SM -SN BR FEW005 OVC032 M04/M05 A3033 RMK AO2 SLP295 P0001 60002 70008 T10441050 11033 21044 50006
KPIT 161251Z 20003KT 2SM -SN BR OVC024 M04/M05 A3034 RMK AO2 SLP299 P0000 T10391050
KPIT 161351Z 15003KT 2SM -SN BR SCT019 OVC031 M04/M05 A3033 RMK AO2 SLP297 P0001 T10391050
KPIT 161451Z 20004KT 2SM -SN BR SCT010 OVC036 M03/M04 A3035 RMK AO2 SLP302 P0000 60001 T10331044 53007
KPIT 161551Z 24005KT 2SM -SN BR SCT010 BKN014 OVC022 M03/M04 A3035 RMK AO2 SLP302 P0000 T10281044
KPIT 161651Z 28010KT 2SM -SN BR SCT011 OVC016 M03/M06 A3034 RMK AO2 SLP299 P0001 T10331056
KPIT 161751Z 25008KT 2SM -SN BR SCT011 BKN025 OVC033 M04/M06 A3032 RMK AO2 SLP291 P0000 60002 T10391061 11028 21044 58011
KPIT 161851Z 26005KT 2SM -SN BR SCT012 BKN024 OVC031 M06/M08 A3031 RMK AO2 SLP290 P0000 T10561078